sensor_id;sensor_type;location;lat;lon;timestamp;temperature;humidity
51500;DHT22;39101;53.478;6.158;2024-02-23T00:00:01;4.70;99.90
51500;DHT22;39101;53.478;6.158;2024-02-23T00:02:31;4.70;99.90
51500;DHT22;39101;53.478;6.158;2024-02-23T00:04:57;4.80;99.90
51500;DHT22;39101;53.478;6.158;2024-02-23T00:07:22;4.70;99.90
51500;DHT22;39101;53.478;6.158;2024-02-23T00:09:48;4.80;99.90
51500;DHT22;39101;53.478;6.158;2024-02-23T00:12:14;4.80;99.90
51500;DHT22;39101;53.478;6.158;2024-02-23T00:14:40;4.80;99.90
51500;DHT22;39101;53.478;6.158;2024-02-23T00:17:05;4.80;99.90
51500;DHT22;39101;53.478;6.158;2024-02-23T00:19:31;4.80;99.90
51500;DHT22;39101;53.478;6.158;2024-02-23T00:21:57;4.90;99.90
51500;DHT22;39101;53.478;6.158;2024-02-23T00:24:25;4.80;99.90
51500;DHT22;39101;53.478;6.158;2024-02-23T00:26:51;5.10;99.90
51500;DHT22;39101;53.478;6.158;2024-02-23T00:29:17;5.20;99.90
51500;DHT22;39101;53.478;6.158;2024-02-23T00:31:43;5.40;99.90
51500;DHT22;39101;53.478;6.158;2024-02-23T00:34:11;5.40;99.90
51500;DHT22;39101;53.478;6.158;2024-02-23T00:36:42;5.30;99.90
51500;DHT22;39101;53.478;6.158;2024-02-23T00:39:10;5.50;99.90
51500;DHT22;39101;53.478;6.158;2024-02-23T00:41:36;5.50;99.90
51500;DHT22;39101;53.478;6.158;2024-02-23T00:44:02;5.60;99.90
51500;DHT22;39101;53.478;6.158;2024-02-23T00:46:28;5.10;99.90
51500;DHT22;39101;53.478;6.158;2024-02-23T00:48:54;4.40;99.90
51500;DHT22;39101;53.478;6.158;2024-02-23T00:51:20;4.30;99.90
51500;DHT22;39101;53.478;6.158;2024-02-23T00:53:46;4.10;99.90
51500;DHT22;39101;53.478;6.158;2024-02-23T00:56:11;4.40;99.90
51500;DHT22;39101;53.478;6.158;2024-02-23T00:58:38;4.30;99.90
51500;DHT22;39101;53.478;6.158;2024-02-23T01:01:04;4.30;99.90
51500;DHT22;39101;53.478;6.158;2024-02-23T01:03:30;4.30;99.90
51500;DHT22;39101;53.478;6.158;2024-02-23T01:05:55;4.20;99.90
51500;DHT22;39101;53.478;6.158;2024-02-23T01:08:21;4.40;99.90
51500;DHT22;39101;53.478;6.158;2024-02-23T01:10:47;4.30;99.90
51500;DHT22;39101;53.478;6.158;2024-02-23T01:13:12;4.60;99.90
51500;DHT22;39101;53.478;6.158;2024-02-23T01:15:39;4.70;99.90
51500;DHT22;39101;53.478;6.158;2024-02-23T01:18:05;4.70;99.90
51500;DHT22;39101;53.478;6.158;2024-02-23T01:20:33;4.60;99.90
51500;DHT22;39101;53.478;6.158;2024-02-23T01:22:59;4.80;99.90
51500;DHT22;39101;53.478;6.158;2024-02-23T01:25:25;4.80;99.90
51500;DHT22;39101;53.478;6.158;2024-02-23T01:27:51;5.00;99.90
51500;DHT22;39101;53.478;6.158;2024-02-23T01:30:17;5.20;99.90
51500;DHT22;39101;53.478;6.158;2024-02-23T01:32:47;5.10;99.90
51500;DHT22;39101;53.478;6.158;2024-02-23T01:35:14;5.20;99.90
51500;DHT22;39101;53.478;6.158;2024-02-23T01:37:39;5.30;99.90
51500;DHT22;39101;53.478;6.158;2024-02-23T01:40:06;5.30;99.90
51500;DHT22;39101;53.478;6.158;2024-02-23T01:42:31;5.10;99.90
51500;DHT22;39101;53.478;6.158;2024-02-23T01:44:57;5.20;99.90
51500;DHT22;39101;53.478;6.158;2024-02-23T01:47:24;5.30;99.90
51500;DHT22;39101;53.478;6.158;2024-02-23T01:49:50;5.50;99.90
51500;DHT22;39101;53.478;6.158;2024-02-23T01:52:16;5.50;99.90
51500;DHT22;39101;53.478;6.158;2024-02-23T01:54:43;5.40;99.90
51500;DHT22;39101;53.478;6.158;2024-02-23T01:57:09;5.30;99.90
51500;DHT22;39101;53.478;6.158;2024-02-23T01:59:36;5.30;99.90
51500;DHT22;39101;53.478;6.158;2024-02-23T02:02:04;5.30;99.90
51500;DHT22;39101;53.478;6.158;2024-02-23T02:04:30;5.20;99.90
51500;DHT22;39101;53.478;6.158;2024-02-23T02:06:57;5.20;99.90
51500;DHT22;39101;53.478;6.158;2024-02-23T02:09:24;5.10;99.90
51500;DHT22;39101;53.478;6.158;2024-02-23T02:11:50;5.30;99.90
51500;DHT22;39101;53.478;6.158;2024-02-23T02:14:16;5.30;99.90
51500;DHT22;39101;53.478;6.158;2024-02-23T02:16:42;5.30;99.90
51500;DHT22;39101;53.478;6.158;2024-02-23T02:19:10;5.20;99.90
51500;DHT22;39101;53.478;6.158;2024-02-23T02:21:37;5.40;99.90
51500;DHT22;39101;53.478;6.158;2024-02-23T02:24:03;5.30;99.90
51500;DHT22;39101;53.478;6.158;2024-02-23T02:26:29;5.30;99.90
51500;DHT22;39101;53.478;6.158;2024-02-23T02:28:55;5.40;99.90
51500;DHT22;39101;53.478;6.158;2024-02-23T02:31:21;5.50;99.90
51500;DHT22;39101;53.478;6.158;2024-02-23T02:33:47;5.40;99.90
51500;DHT22;39101;53.478;6.158;2024-02-23T02:36:12;5.50;99.90
51500;DHT22;39101;53.478;6.158;2024-02-23T02:38:38;5.30;99.90
51500;DHT22;39101;53.478;6.158;2024-02-23T02:41:04;5.10;99.90
51500;DHT22;39101;53.478;6.158;2024-02-23T02:43:31;5.30;99.90
51500;DHT22;39101;53.478;6.158;2024-02-23T02:45:57;5.40;99.90
51500;DHT22;39101;53.478;6.158;2024-02-23T02:48:24;5.10;99.90
51500;DHT22;39101;53.478;6.158;2024-02-23T02:50:50;4.70;99.90
51500;DHT22;39101;53.478;6.158;2024-02-23T02:53:16;4.60;99.90
51500;DHT22;39101;53.478;6.158;2024-02-23T02:55:43;4.80;99.90
51500;DHT22;39101;53.478;6.158;2024-02-23T02:58:10;4.80;99.90
51500;DHT22;39101;53.478;6.158;2024-02-23T03:00:36;5.00;99.90
51500;DHT22;39101;53.478;6.158;2024-02-23T03:03:02;5.10;99.90
51500;DHT22;39101;53.478;6.158;2024-02-23T03:05:27;5.10;99.90
51500;DHT22;39101;53.478;6.158;2024-02-23T03:07:53;5.20;99.90
51500;DHT22;39101;53.478;6.158;2024-02-23T03:10:19;5.20;99.90
51500;DHT22;39101;53.478;6.158;2024-02-23T03:12:44;5.20;99.90
51500;DHT22;39101;53.478;6.158;2024-02-23T03:15:10;5.30;99.90
51500;DHT22;39101;53.478;6.158;2024-02-23T03:17:36;5.30;99.90
51500;DHT22;39101;53.478;6.158;2024-02-23T03:20:02;5.40;99.90
51500;DHT22;39101;53.478;6.158;2024-02-23T03:22:31;5.30;99.90
51500;DHT22;39101;53.478;6.158;2024-02-23T03:24:57;5.10;99.90
51500;DHT22;39101;53.478;6.158;2024-02-23T03:27:28;5.20;99.90
51500;DHT22;39101;53.478;6.158;2024-02-23T03:29:54;5.20;99.90
51500;DHT22;39101;53.478;6.158;2024-02-23T03:32:20;5.10;99.90
51500;DHT22;39101;53.478;6.158;2024-02-23T03:34:46;5.10;99.90
51500;DHT22;39101;53.478;6.158;2024-02-23T03:37:11;5.10;99.90
51500;DHT22;39101;53.478;6.158;2024-02-23T03:39:37;5.10;99.90
51500;DHT22;39101;53.478;6.158;2024-02-23T03:42:04;5.10;99.90
51500;DHT22;39101;53.478;6.158;2024-02-23T03:44:29;5.20;99.90
51500;DHT22;39101;53.478;6.158;2024-02-23T03:46:57;5.20;99.90
51500;DHT22;39101;53.478;6.158;2024-02-23T03:49:22;5.10;99.90
51500;DHT22;39101;53.478;6.158;2024-02-23T03:51:48;5.20;99.90
51500;DHT22;39101;53.478;6.158;2024-02-23T03:54:13;5.30;99.90
51500;DHT22;39101;53.478;6.158;2024-02-23T03:56:40;5.40;99.90
51500;DHT22;39101;53.478;6.158;2024-02-23T03:59:07;5.30;99.90
51500;DHT22;39101;53.478;6.158;2024-02-23T04:01:37;5.30;99.90
51500;DHT22;39101;53.478;6.158;2024-02-23T04:04:04;5.30;99.90
51500;DHT22;39101;53.478;6.158;2024-02-23T04:06:29;5.30;99.90
51500;DHT22;39101;53.478;6.158;2024-02-23T04:08:56;5.20;99.90
51500;DHT22;39101;53.478;6.158;2024-02-23T04:11:21;5.30;99.90
51500;DHT22;39101;53.478;6.158;2024-02-23T04:13:47;5.30;99.90
51500;DHT22;39101;53.478;6.158;2024-02-23T04:16:13;5.30;99.90
51500;DHT22;39101;53.478;6.158;2024-02-23T04:18:38;5.30;99.90
51500;DHT22;39101;53.478;6.158;2024-02-23T04:21:04;5.50;99.90
51500;DHT22;39101;53.478;6.158;2024-02-23T04:23:30;5.50;99.90
51500;DHT22;39101;53.478;6.158;2024-02-23T04:25:56;5.50;99.90
51500;DHT22;39101;53.478;6.158;2024-02-23T04:28:22;5.60;99.90
51500;DHT22;39101;53.478;6.158;2024-02-23T04:30:47;5.50;99.90
51500;DHT22;39101;53.478;6.158;2024-02-23T04:33:13;5.50;99.90
51500;DHT22;39101;53.478;6.158;2024-02-23T04:35:39;5.50;99.90
51500;DHT22;39101;53.478;6.158;2024-02-23T04:38:04;5.50;99.90
51500;DHT22;39101;53.478;6.158;2024-02-23T04:40:30;5.40;99.90
51500;DHT22;39101;53.478;6.158;2024-02-23T04:42:56;5.40;99.90
51500;DHT22;39101;53.478;6.158;2024-02-23T04:45:21;5.40;99.90
51500;DHT22;39101;53.478;6.158;2024-02-23T04:47:47;5.50;99.90
51500;DHT22;39101;53.478;6.158;2024-02-23T04:50:14;5.40;99.90
51500;DHT22;39101;53.478;6.158;2024-02-23T04:52:40;5.40;99.90
51500;DHT22;39101;53.478;6.158;2024-02-23T04:55:05;5.30;99.90
51500;DHT22;39101;53.478;6.158;2024-02-23T04:57:31;5.40;99.90
51500;DHT22;39101;53.478;6.158;2024-02-23T04:59:57;5.50;99.90
51500;DHT22;39101;53.478;6.158;2024-02-23T05:02:23;5.40;99.90
51500;DHT22;39101;53.478;6.158;2024-02-23T05:04:49;5.50;99.90
51500;DHT22;39101;53.478;6.158;2024-02-23T05:07:14;5.30;99.90
51500;DHT22;39101;53.478;6.158;2024-02-23T05:09:40;5.30;99.90
51500;DHT22;39101;53.478;6.158;2024-02-23T05:12:09;5.30;99.90
51500;DHT22;39101;53.478;6.158;2024-02-23T05:14:35;5.30;99.90
51500;DHT22;39101;53.478;6.158;2024-02-23T05:17:01;5.30;99.90
51500;DHT22;39101;53.478;6.158;2024-02-23T05:19:27;5.30;99.90
51500;DHT22;39101;53.478;6.158;2024-02-23T05:21:52;5.30;99.90
51500;DHT22;39101;53.478;6.158;2024-02-23T05:24:18;5.40;99.90
51500;DHT22;39101;53.478;6.158;2024-02-23T05:26:44;5.40;99.90
51500;DHT22;39101;53.478;6.158;2024-02-23T05:29:10;5.30;99.90
51500;DHT22;39101;53.478;6.158;2024-02-23T05:31:49;5.40;99.90
51500;DHT22;39101;53.478;6.158;2024-02-23T05:34:15;5.40;99.90
51500;DHT22;39101;53.478;6.158;2024-02-23T05:36:41;5.30;99.90
51500;DHT22;39101;53.478;6.158;2024-02-23T05:39:07;5.30;99.90
51500;DHT22;39101;53.478;6.158;2024-02-23T05:41:37;5.30;99.90
51500;DHT22;39101;53.478;6.158;2024-02-23T05:44:04;5.30;99.90
51500;DHT22;39101;53.478;6.158;2024-02-23T05:46:34;5.20;99.90
51500;DHT22;39101;53.478;6.158;2024-02-23T05:49:01;5.20;99.90
51500;DHT22;39101;53.478;6.158;2024-02-23T05:51:28;5.20;99.90
51500;DHT22;39101;53.478;6.158;2024-02-23T05:53:57;5.30;99.90
51500;DHT22;39101;53.478;6.158;2024-02-23T05:56:23;5.20;99.90
51500;DHT22;39101;53.478;6.158;2024-02-23T05:58:50;5.10;99.90
51500;DHT22;39101;53.478;6.158;2024-02-23T06:01:17;5.10;99.90
51500;DHT22;39101;53.478;6.158;2024-02-23T06:03:43;5.10;99.90
51500;DHT22;39101;53.478;6.158;2024-02-23T06:06:10;5.10;99.90
51500;DHT22;39101;53.478;6.158;2024-02-23T06:08:36;5.00;99.90
51500;DHT22;39101;53.478;6.158;2024-02-23T06:11:02;5.00;99.90
51500;DHT22;39101;53.478;6.158;2024-02-23T06:13:29;4.90;99.90
51500;DHT22;39101;53.478;6.158;2024-02-23T06:15:55;4.90;99.90
51500;DHT22;39101;53.478;6.158;2024-02-23T06:18:21;4.90;99.90
51500;DHT22;39101;53.478;6.158;2024-02-23T06:20:47;5.00;99.90
51500;DHT22;39101;53.478;6.158;2024-02-23T06:23:13;4.90;99.90
51500;DHT22;39101;53.478;6.158;2024-02-23T06:25:39;4.90;99.90
51500;DHT22;39101;53.478;6.158;2024-02-23T06:28:05;4.80;99.90
51500;DHT22;39101;53.478;6.158;2024-02-23T06:30:32;4.90;99.90
51500;DHT22;39101;53.478;6.158;2024-02-23T06:32:57;4.90;99.90
51500;DHT22;39101;53.478;6.158;2024-02-23T06:35:23;5.00;99.90
51500;DHT22;39101;53.478;6.158;2024-02-23T06:37:49;4.90;99.90
51500;DHT22;39101;53.478;6.158;2024-02-23T06:40:15;4.90;99.90
51500;DHT22;39101;53.478;6.158;2024-02-23T06:42:40;4.90;99.90
51500;DHT22;39101;53.478;6.158;2024-02-23T06:45:06;4.80;99.90
51500;DHT22;39101;53.478;6.158;2024-02-23T06:47:33;4.90;99.90
51500;DHT22;39101;53.478;6.158;2024-02-23T06:49:59;4.80;99.90
51500;DHT22;39101;53.478;6.158;2024-02-23T06:52:25;4.80;99.90
51500;DHT22;39101;53.478;6.158;2024-02-23T06:54:52;4.80;99.90
51500;DHT22;39101;53.478;6.158;2024-02-23T06:57:17;4.80;99.90
51500;DHT22;39101;53.478;6.158;2024-02-23T06:59:44;4.90;99.90
51500;DHT22;39101;53.478;6.158;2024-02-23T07:02:09;4.80;99.90
51500;DHT22;39101;53.478;6.158;2024-02-23T07:04:35;4.80;99.90
51500;DHT22;39101;53.478;6.158;2024-02-23T07:07:01;4.90;99.90
51500;DHT22;39101;53.478;6.158;2024-02-23T07:09:33;4.90;99.90
51500;DHT22;39101;53.478;6.158;2024-02-23T07:11:59;5.00;99.90
51500;DHT22;39101;53.478;6.158;2024-02-23T07:14:25;5.00;99.90
51500;DHT22;39101;53.478;6.158;2024-02-23T07:16:51;5.00;99.90
51500;DHT22;39101;53.478;6.158;2024-02-23T07:19:19;5.10;99.90
51500;DHT22;39101;53.478;6.158;2024-02-23T07:21:48;5.20;99.90
51500;DHT22;39101;53.478;6.158;2024-02-23T07:24:13;5.20;99.90
51500;DHT22;39101;53.478;6.158;2024-02-23T07:26:39;5.20;99.90
51500;DHT22;39101;53.478;6.158;2024-02-23T07:29:07;5.30;99.90
51500;DHT22;39101;53.478;6.158;2024-02-23T07:31:32;5.40;99.90
51500;DHT22;39101;53.478;6.158;2024-02-23T07:33:58;5.40;99.90
51500;DHT22;39101;53.478;6.158;2024-02-23T07:36:24;5.40;99.90
51500;DHT22;39101;53.478;6.158;2024-02-23T07:38:49;5.40;99.90
51500;DHT22;39101;53.478;6.158;2024-02-23T07:41:15;5.30;99.90
51500;DHT22;39101;53.478;6.158;2024-02-23T07:43:43;5.40;99.90
51500;DHT22;39101;53.478;6.158;2024-02-23T07:46:09;5.50;99.90
51500;DHT22;39101;53.478;6.158;2024-02-23T07:48:36;5.50;99.90
51500;DHT22;39101;53.478;6.158;2024-02-23T07:51:05;5.40;99.90
51500;DHT22;39101;53.478;6.158;2024-02-23T07:53:31;5.40;99.90
51500;DHT22;39101;53.478;6.158;2024-02-23T07:55:57;5.50;99.90
51500;DHT22;39101;53.478;6.158;2024-02-23T07:58:25;5.50;99.90
51500;DHT22;39101;53.478;6.158;2024-02-23T08:00:52;5.60;99.90
51500;DHT22;39101;53.478;6.158;2024-02-23T08:03:18;5.60;99.90
51500;DHT22;39101;53.478;6.158;2024-02-23T08:05:44;5.60;99.90
51500;DHT22;39101;53.478;6.158;2024-02-23T08:08:09;5.70;99.90
51500;DHT22;39101;53.478;6.158;2024-02-23T08:10:35;5.70;99.90
51500;DHT22;39101;53.478;6.158;2024-02-23T08:13:01;5.80;99.90
51500;DHT22;39101;53.478;6.158;2024-02-23T08:15:27;5.80;99.90
51500;DHT22;39101;53.478;6.158;2024-02-23T08:17:53;5.80;99.90
51500;DHT22;39101;53.478;6.158;2024-02-23T08:20:19;5.80;99.90
51500;DHT22;39101;53.478;6.158;2024-02-23T08:22:44;5.80;99.90
51500;DHT22;39101;53.478;6.158;2024-02-23T08:25:10;5.90;99.90
51500;DHT22;39101;53.478;6.158;2024-02-23T08:27:36;5.80;99.90
51500;DHT22;39101;53.478;6.158;2024-02-23T08:30:02;5.80;99.90
51500;DHT22;39101;53.478;6.158;2024-02-23T08:32:27;5.90;99.90
51500;DHT22;39101;53.478;6.158;2024-02-23T08:34:53;5.90;99.90
51500;DHT22;39101;53.478;6.158;2024-02-23T08:37:25;5.80;99.90
51500;DHT22;39101;53.478;6.158;2024-02-23T08:39:51;5.80;99.90
51500;DHT22;39101;53.478;6.158;2024-02-23T08:42:16;5.80;99.90
51500;DHT22;39101;53.478;6.158;2024-02-23T08:44:42;5.90;99.90
51500;DHT22;39101;53.478;6.158;2024-02-23T08:47:08;5.90;99.90
51500;DHT22;39101;53.478;6.158;2024-02-23T08:49:33;5.90;99.90
51500;DHT22;39101;53.478;6.158;2024-02-23T08:51:59;5.90;99.90
51500;DHT22;39101;53.478;6.158;2024-02-23T08:54:25;5.90;99.90
51500;DHT22;39101;53.478;6.158;2024-02-23T08:56:51;6.00;99.90
51500;DHT22;39101;53.478;6.158;2024-02-23T08:59:16;5.90;99.90
51500;DHT22;39101;53.478;6.158;2024-02-23T09:01:42;6.00;99.90
51500;DHT22;39101;53.478;6.158;2024-02-23T09:04:10;6.00;99.90
51500;DHT22;39101;53.478;6.158;2024-02-23T09:06:35;6.00;99.90
51500;DHT22;39101;53.478;6.158;2024-02-23T09:09:01;6.00;99.90
51500;DHT22;39101;53.478;6.158;2024-02-23T09:11:26;6.00;99.90
51500;DHT22;39101;53.478;6.158;2024-02-23T09:13:52;6.00;99.90
51500;DHT22;39101;53.478;6.158;2024-02-23T09:16:18;5.90;99.90
51500;DHT22;39101;53.478;6.158;2024-02-23T09:18:44;6.00;99.90
51500;DHT22;39101;53.478;6.158;2024-02-23T09:21:10;6.00;99.90
51500;DHT22;39101;53.478;6.158;2024-02-23T09:23:35;6.00;99.90
51500;DHT22;39101;53.478;6.158;2024-02-23T09:26:01;6.00;99.90
51500;DHT22;39101;53.478;6.158;2024-02-23T09:28:29;6.00;99.90
51500;DHT22;39101;53.478;6.158;2024-02-23T09:30:55;6.00;99.90
51500;DHT22;39101;53.478;6.158;2024-02-23T09:33:20;6.00;99.90
51500;DHT22;39101;53.478;6.158;2024-02-23T09:35:46;5.90;99.90
51500;DHT22;39101;53.478;6.158;2024-02-23T09:38:12;5.90;99.90
51500;DHT22;39101;53.478;6.158;2024-02-23T09:40:39;6.00;99.90
51500;DHT22;39101;53.478;6.158;2024-02-23T09:43:08;6.00;99.90
51500;DHT22;39101;53.478;6.158;2024-02-23T09:45:33;6.10;99.90
51500;DHT22;39101;53.478;6.158;2024-02-23T09:48:00;6.10;99.90
51500;DHT22;39101;53.478;6.158;2024-02-23T09:50:29;6.10;99.90
51500;DHT22;39101;53.478;6.158;2024-02-23T09:52:57;6.10;99.90
51500;DHT22;39101;53.478;6.158;2024-02-23T09:55:23;6.10;99.90
51500;DHT22;39101;53.478;6.158;2024-02-23T09:57:52;6.10;99.90
51500;DHT22;39101;53.478;6.158;2024-02-23T10:00:23;6.10;99.90
51500;DHT22;39101;53.478;6.158;2024-02-23T10:02:49;6.10;99.90
51500;DHT22;39101;53.478;6.158;2024-02-23T10:05:16;6.10;99.90
51500;DHT22;39101;53.478;6.158;2024-02-23T10:07:42;6.10;99.90
51500;DHT22;39101;53.478;6.158;2024-02-23T10:10:09;6.20;99.90
51500;DHT22;39101;53.478;6.158;2024-02-23T10:12:37;6.30;99.90
51500;DHT22;39101;53.478;6.158;2024-02-23T10:15:03;6.40;99.90
51500;DHT22;39101;53.478;6.158;2024-02-23T10:17:32;6.50;99.90
51500;DHT22;39101;53.478;6.158;2024-02-23T10:19:59;6.50;99.90
51500;DHT22;39101;53.478;6.158;2024-02-23T10:22:25;6.60;99.90
51500;DHT22;39101;53.478;6.158;2024-02-23T10:24:53;6.50;99.90
51500;DHT22;39101;53.478;6.158;2024-02-23T10:27:21;6.40;99.90
51500;DHT22;39101;53.478;6.158;2024-02-23T10:29:50;6.20;99.90
51500;DHT22;39101;53.478;6.158;2024-02-23T10:32:16;6.10;99.90
51500;DHT22;39101;53.478;6.158;2024-02-23T10:34:43;5.90;99.90
51500;DHT22;39101;53.478;6.158;2024-02-23T10:37:10;5.80;99.90
51500;DHT22;39101;53.478;6.158;2024-02-23T10:39:38;5.80;99.90
51500;DHT22;39101;53.478;6.158;2024-02-23T10:42:08;5.80;99.90
51500;DHT22;39101;53.478;6.158;2024-02-23T10:44:34;5.70;99.90
51500;DHT22;39101;53.478;6.158;2024-02-23T10:47:01;5.80;99.90
51500;DHT22;39101;53.478;6.158;2024-02-23T10:49:28;5.70;99.90
51500;DHT22;39101;53.478;6.158;2024-02-23T10:51:55;5.90;99.90
51500;DHT22;39101;53.478;6.158;2024-02-23T10:54:22;5.90;99.90
51500;DHT22;39101;53.478;6.158;2024-02-23T10:56:50;5.90;99.90
51500;DHT22;39101;53.478;6.158;2024-02-23T10:59:19;5.90;99.90
51500;DHT22;39101;53.478;6.158;2024-02-23T11:01:52;5.90;99.90
51500;DHT22;39101;53.478;6.158;2024-02-23T11:04:20;6.00;99.90
51500;DHT22;39101;53.478;6.158;2024-02-23T11:06:56;6.00;99.90
51500;DHT22;39101;53.478;6.158;2024-02-23T11:09:24;6.00;99.90
51500;DHT22;39101;53.478;6.158;2024-02-23T11:11:57;6.00;99.90
51500;DHT22;39101;53.478;6.158;2024-02-23T11:14:38;5.90;99.90
51500;DHT22;39101;53.478;6.158;2024-02-23T11:17:04;5.90;99.90
51500;DHT22;39101;53.478;6.158;2024-02-23T11:19:39;5.90;99.90
51500;DHT22;39101;53.478;6.158;2024-02-23T11:22:09;5.90;99.90
51500;DHT22;39101;53.478;6.158;2024-02-23T11:24:35;5.90;99.90
51500;DHT22;39101;53.478;6.158;2024-02-23T11:27:13;6.00;99.90
51500;DHT22;39101;53.478;6.158;2024-02-23T11:29:39;6.10;99.90
51500;DHT22;39101;53.478;6.158;2024-02-23T11:32:15;6.10;99.90
51500;DHT22;39101;53.478;6.158;2024-02-23T11:34:42;6.10;99.90
51500;DHT22;39101;53.478;6.158;2024-02-23T11:37:11;6.20;99.90
51500;DHT22;39101;53.478;6.158;2024-02-23T11:39:40;6.20;99.90
51500;DHT22;39101;53.478;6.158;2024-02-23T11:42:09;6.20;99.90
51500;DHT22;39101;53.478;6.158;2024-02-23T11:44:34;6.30;99.90
51500;DHT22;39101;53.478;6.158;2024-02-23T11:47:00;6.20;99.90
51500;DHT22;39101;53.478;6.158;2024-02-23T11:49:29;6.20;99.90
51500;DHT22;39101;53.478;6.158;2024-02-23T11:51:56;6.20;99.90
51500;DHT22;39101;53.478;6.158;2024-02-23T11:54:22;6.30;99.90
51500;DHT22;39101;53.478;6.158;2024-02-23T11:56:49;6.30;99.90
51500;DHT22;39101;53.478;6.158;2024-02-23T11:59:20;6.30;99.90
51500;DHT22;39101;53.478;6.158;2024-02-23T12:01:46;6.30;99.90
51500;DHT22;39101;53.478;6.158;2024-02-23T12:04:15;6.30;99.90
51500;DHT22;39101;53.478;6.158;2024-02-23T12:06:42;6.30;99.90
51500;DHT22;39101;53.478;6.158;2024-02-23T12:09:08;6.30;99.90
51500;DHT22;39101;53.478;6.158;2024-02-23T12:11:34;6.30;99.90
51500;DHT22;39101;53.478;6.158;2024-02-23T12:14:00;6.30;99.90
51500;DHT22;39101;53.478;6.158;2024-02-23T12:16:27;6.30;99.90
51500;DHT22;39101;53.478;6.158;2024-02-23T12:18:54;6.40;99.90
51500;DHT22;39101;53.478;6.158;2024-02-23T12:21:24;6.30;99.90
51500;DHT22;39101;53.478;6.158;2024-02-23T12:23:50;6.40;99.90
51500;DHT22;39101;53.478;6.158;2024-02-23T12:26:17;6.50;99.90
51500;DHT22;39101;53.478;6.158;2024-02-23T12:28:44;6.50;99.90
51500;DHT22;39101;53.478;6.158;2024-02-23T12:31:10;6.50;99.90
51500;DHT22;39101;53.478;6.158;2024-02-23T12:33:37;6.50;99.90
51500;DHT22;39101;53.478;6.158;2024-02-23T12:36:04;6.60;99.90
51500;DHT22;39101;53.478;6.158;2024-02-23T12:38:30;6.50;99.90
51500;DHT22;39101;53.478;6.158;2024-02-23T12:40:56;6.40;99.90
51500;DHT22;39101;53.478;6.158;2024-02-23T12:43:22;6.50;99.90
51500;DHT22;39101;53.478;6.158;2024-02-23T12:45:56;6.40;99.90
51500;DHT22;39101;53.478;6.158;2024-02-23T12:48:23;6.40;99.90
51500;DHT22;39101;53.478;6.158;2024-02-23T12:50:49;6.40;99.90
51500;DHT22;39101;53.478;6.158;2024-02-23T12:56:12;6.50;99.90
51500;DHT22;39101;53.478;6.158;2024-02-23T12:58:42;6.60;99.90
51500;DHT22;39101;53.478;6.158;2024-02-23T13:01:10;6.80;99.90
51500;DHT22;39101;53.478;6.158;2024-02-23T13:03:37;6.80;99.90
51500;DHT22;39101;53.478;6.158;2024-02-23T13:06:04;6.90;99.90
51500;DHT22;39101;53.478;6.158;2024-02-23T13:08:30;7.00;99.90
51500;DHT22;39101;53.478;6.158;2024-02-23T13:10:57;7.00;99.90
51500;DHT22;39101;53.478;6.158;2024-02-23T13:13:23;7.10;99.90
51500;DHT22;39101;53.478;6.158;2024-02-23T13:15:50;7.10;99.90
51500;DHT22;39101;53.478;6.158;2024-02-23T13:18:17;7.10;99.90
51500;DHT22;39101;53.478;6.158;2024-02-23T13:20:42;7.20;99.90
51500;DHT22;39101;53.478;6.158;2024-02-23T13:23:09;7.30;99.90
51500;DHT22;39101;53.478;6.158;2024-02-23T13:25:35;7.30;99.90
51500;DHT22;39101;53.478;6.158;2024-02-23T13:28:02;7.30;99.90
51500;DHT22;39101;53.478;6.158;2024-02-23T13:30:27;7.30;99.90
51500;DHT22;39101;53.478;6.158;2024-02-23T13:32:53;7.20;99.90
51500;DHT22;39101;53.478;6.158;2024-02-23T13:35:19;7.40;99.90
51500;DHT22;39101;53.478;6.158;2024-02-23T13:37:44;7.40;99.90
51500;DHT22;39101;53.478;6.158;2024-02-23T13:40:10;7.40;99.90
51500;DHT22;39101;53.478;6.158;2024-02-23T13:42:39;7.40;99.90
51500;DHT22;39101;53.478;6.158;2024-02-23T13:45:08;7.30;99.90
51500;DHT22;39101;53.478;6.158;2024-02-23T13:47:35;7.40;99.90
51500;DHT22;39101;53.478;6.158;2024-02-23T13:50:05;7.50;99.90
51500;DHT22;39101;53.478;6.158;2024-02-23T13:52:31;7.60;99.90
51500;DHT22;39101;53.478;6.158;2024-02-23T13:54:57;7.70;99.90
51500;DHT22;39101;53.478;6.158;2024-02-23T13:57:22;7.80;99.90
51500;DHT22;39101;53.478;6.158;2024-02-23T13:59:48;7.80;99.90
51500;DHT22;39101;53.478;6.158;2024-02-23T14:02:14;7.70;99.90
51500;DHT22;39101;53.478;6.158;2024-02-23T14:04:40;7.70;99.90
51500;DHT22;39101;53.478;6.158;2024-02-23T14:07:07;7.60;99.90
51500;DHT22;39101;53.478;6.158;2024-02-23T14:09:33;7.50;99.90
51500;DHT22;39101;53.478;6.158;2024-02-23T14:11:58;7.40;99.90
51500;DHT22;39101;53.478;6.158;2024-02-23T14:14:24;7.50;99.90
51500;DHT22;39101;53.478;6.158;2024-02-23T14:16:50;7.50;99.90
51500;DHT22;39101;53.478;6.158;2024-02-23T14:19:16;7.50;99.90
51500;DHT22;39101;53.478;6.158;2024-02-23T14:21:42;7.40;99.90
51500;DHT22;39101;53.478;6.158;2024-02-23T14:24:07;7.40;99.90
51500;DHT22;39101;53.478;6.158;2024-02-23T14:26:33;7.50;99.90
51500;DHT22;39101;53.478;6.158;2024-02-23T14:28:59;7.50;99.90
51500;DHT22;39101;53.478;6.158;2024-02-23T14:31:25;7.50;99.90
51500;DHT22;39101;53.478;6.158;2024-02-23T14:33:51;7.40;99.90
51500;DHT22;39101;53.478;6.158;2024-02-23T14:36:18;7.40;99.90
51500;DHT22;39101;53.478;6.158;2024-02-23T14:38:43;7.40;99.90
51500;DHT22;39101;53.478;6.158;2024-02-23T14:41:13;7.40;99.90
51500;DHT22;39101;53.478;6.158;2024-02-23T14:43:39;7.40;99.90
51500;DHT22;39101;53.478;6.158;2024-02-23T14:46:05;7.40;99.90
51500;DHT22;39101;53.478;6.158;2024-02-23T14:48:34;7.40;99.90
51500;DHT22;39101;53.478;6.158;2024-02-23T14:51:00;7.40;99.90
51500;DHT22;39101;53.478;6.158;2024-02-23T14:53:29;7.30;99.90
51500;DHT22;39101;53.478;6.158;2024-02-23T14:55:54;7.40;99.90
51500;DHT22;39101;53.478;6.158;2024-02-23T14:58:20;7.30;99.90
51500;DHT22;39101;53.478;6.158;2024-02-23T15:00:46;7.30;99.90
51500;DHT22;39101;53.478;6.158;2024-02-23T15:03:13;7.30;99.90
51500;DHT22;39101;53.478;6.158;2024-02-23T15:05:39;7.20;99.90
51500;DHT22;39101;53.478;6.158;2024-02-23T15:08:06;7.20;99.90
51500;DHT22;39101;53.478;6.158;2024-02-23T15:10:32;7.20;99.90
51500;DHT22;39101;53.478;6.158;2024-02-23T15:12:58;7.40;99.90
51500;DHT22;39101;53.478;6.158;2024-02-23T15:15:24;7.50;99.90
51500;DHT22;39101;53.478;6.158;2024-02-23T15:17:50;7.50;99.90
51500;DHT22;39101;53.478;6.158;2024-02-23T15:20:16;7.60;99.90
51500;DHT22;39101;53.478;6.158;2024-02-23T15:22:41;7.70;99.90
51500;DHT22;39101;53.478;6.158;2024-02-23T15:25:08;7.70;99.90
51500;DHT22;39101;53.478;6.158;2024-02-23T15:27:35;7.60;99.90
51500;DHT22;39101;53.478;6.158;2024-02-23T15:30:01;7.60;99.90
51500;DHT22;39101;53.478;6.158;2024-02-23T15:32:27;7.60;99.90
51500;DHT22;39101;53.478;6.158;2024-02-23T15:34:53;7.70;99.90
51500;DHT22;39101;53.478;6.158;2024-02-23T15:37:18;7.80;99.90
51500;DHT22;39101;53.478;6.158;2024-02-23T15:39:44;7.90;99.90
51500;DHT22;39101;53.478;6.158;2024-02-23T15:42:10;7.90;99.90